Time;durP1;ratioP1;P1;durP2;ratioP2;P2;SDS_P1;SDS_P2;PMS_P1;PMS_P2;Temp;Humidity;BMP_temperature;BMP_pressure;BME280_temperature;BME280_humidity;BME280_pressure;Samples;Min_cycle;Max_cycle;Signal;HPM_P1;HPM_P2
2023/04/05 00:02:12;;;;;;;5.13;4.53;;;2.80;99.90;;;;;;5156281;27;20535;-67
2023/04/05 00:04:50;;;;;;;8.03;5.37;;;2.70;99.90;;;;;;5156082;27;20490;-68
2023/04/05 00:07:20;;;;;;;6.27;4.00;;;2.70;99.90;;;;;;5156358;27;20877;-68
2023/04/05 00:09:48;;;;;;;8.40;5.17;;;2.70;99.90;;;;;;5155641;27;20541;-70
2023/04/05 00:12:15;;;;;;;6.10;4.50;;;2.60;99.90;;;;;;5155806;27;20450;-68
2023/04/05 00:14:43;;;;;;;5.90;3.90;;;2.50;99.90;;;;;;5155709;27;20542;-68
2023/04/05 00:17:10;;;;;;;5.67;4.60;;;2.50;99.90;;;;;;5155839;27;20561;-67
2023/04/05 00:19:38;;;;;;;15.30;7.17;;;2.50;99.90;;;;;;5155921;27;20462;-68
2023/04/05 00:22:05;;;;;;;8.40;5.10;;;2.50;99.90;;;;;;5156141;27;20466;-68
2023/04/05 00:24:32;;;;;;;6.13;4.00;;;2.40;99.90;;;;;;5156234;27;20462;-69
2023/04/05 00:26:59;;;;;;;8.23;4.00;;;2.30;99.90;;;;;;5156241;27;20537;-69
2023/04/05 00:29:26;;;;;;;6.97;3.83;;;2.40;99.90;;;;;;5156597;27;20454;-67
2023/04/05 00:31:55;;;;;;;3.30;3.00;;;2.30;99.90;;;;;;5156627;27;20451;-68
2023/04/05 00:34:22;;;;;;;5.17;3.07;;;2.30;99.90;;;;;;5157350;27;20790;-68
2023/04/05 00:36:49;;;;;;;4.93;3.60;;;2.20;99.90;;;;;;5157572;27;20484;-68
2023/04/05 00:39:16;;;;;;;3.00;2.70;;;2.10;99.90;;;;;;5157467;27;20538;-68
2023/04/05 00:41:43;;;;;;;3.63;3.33;;;2.10;99.90;;;;;;5157503;27;20450;-69
2023/04/05 00:44:11;;;;;;;4.00;3.30;;;2.00;99.90;;;;;;5156657;27;20472;-68
2023/04/05 00:46:38;;;;;;;3.90;3.07;;;2.10;99.90;;;;;;5157166;27;20446;-68
2023/04/05 00:49:07;;;;;;;4.40;3.60;;;2.20;99.90;;;;;;5155990;27;20446;-68
2023/04/05 00:51:35;;;;;;;4.17;2.80;;;2.30;99.90;;;;;;5157006;27;20485;-68
2023/04/05 00:54:02;;;;;;;4.87;3.70;;;2.20;99.90;;;;;;5159556;27;20906;-69
2023/04/05 00:56:30;;;;;;;3.20;2.90;;;2.20;99.90;;;;;;5160663;27;20555;-68
2023/04/05 00:58:57;;;;;;;4.67;2.90;;;2.20;99.90;;;;;;5159027;27;20514;-69
2023/04/05 01:01:26;;;;;;;5.00;2.77;;;2.20;99.90;;;;;;5159358;27;20533;-69
2023/04/05 01:03:58;;;;;;;3.80;2.57;;;2.20;99.90;;;;;;5158628;27;20451;-68
2023/04/05 01:06:52;;;;;;;3.60;2.87;;;2.20;99.90;;;;;;5157660;27;20442;-68
2023/04/05 01:09:32;;;;;;;2.80;2.60;;;2.10;99.90;;;;;;5149095;27;20796;-69
2023/04/05 01:12:03;;;;;;;3.30;2.70;;;2.10;99.90;;;;;;5157331;27;20450;-69
2023/04/05 01:14:30;;;;;;;6.10;3.50;;;2.00;99.90;;;;;;5156209;27;20487;-68
2023/04/05 01:16:57;;;;;;;6.00;3.27;;;2.00;99.90;;;;;;5156098;27;20490;-69
2023/04/05 01:19:26;;;;;;;5.33;3.70;;;1.90;99.90;;;;;;5156015;27;20454;-68
2023/04/05 01:22:36;;;;;;;4.93;3.20;;;2.10;99.90;;;;;;5158652;27;20493;-68
2023/04/05 01:25:27;;;;;;;5.83;4.40;;;2.10;99.90;;;;;;5159459;27;20454;-68
2023/04/05 01:28:12;;;;;;;9.40;4.50;;;1.90;99.90;;;;;;5159058;27;20530;-67
2023/04/05 01:30:44;;;;;;;5.70;4.10;;;1.80;99.90;;;;;;5163159;27;20442;-70
2023/04/05 01:33:17;;;;;;;6.40;4.87;;;1.80;99.90;;;;;;5163389;27;20443;-71
2023/04/05 01:35:50;;;;;;;6.87;4.07;;;1.70;99.90;;;;;;5163620;27;20525;-70
2023/04/05 01:38:20;;;;;;;7.00;4.77;;;1.60;99.90;;;;;;5165435;27;20577;-71
2023/04/05 01:40:48;;;;;;;6.80;4.60;;;1.70;99.90;;;;;;5161924;27;20490;-70
2023/04/05 01:43:15;;;;;;;7.90;4.70;;;1.70;99.90;;;;;;5161756;27;20502;-71
2023/04/05 01:45:44;;;;;;;8.83;4.10;;;1.60;99.90;;;;;;5160846;27;20450;-71
2023/04/05 01:48:12;;;;;;;4.37;3.90;;;1.80;99.90;;;;;;5160699;27;20538;-70
2023/04/05 01:50:39;;;;;;;6.10;3.73;;;1.80;99.90;;;;;;5160836;27;20533;-70
2023/04/05 01:53:07;;;;;;;8.20;4.70;;;1.80;99.90;;;;;;5161308;27;20807;-71
2023/04/05 01:55:34;;;;;;;6.30;4.37;;;1.70;99.90;;;;;;5161776;27;20533;-71
2023/04/05 01:58:01;;;;;;;7.17;4.07;;;1.70;99.90;;;;;;5161411;27;20539;-71
2023/04/05 02:00:28;;;;;;;5.40;4.33;;;1.60;99.90;;;;;;5160970;27;20454;-71
2023/04/05 02:02:56;;;;;;;6.30;4.70;;;1.70;99.90;;;;;;5160479;27;20461;-71
2023/04/05 02:05:23;;;;;;;5.80;3.90;;;1.70;99.90;;;;;;5160293;27;20523;-71
2023/04/05 02:07:50;;;;;;;6.93;4.17;;;1.90;99.90;;;;;;5160118;27;20442;-71
2023/04/05 02:10:18;;;;;;;4.57;3.43;;;2.10;99.90;;;;;;5160312;27;20807;-71
2023/04/05 02:12:45;;;;;;;4.27;3.77;;;2.20;99.90;;;;;;5160734;27;20489;-71
2023/04/05 02:15:12;;;;;;;6.93;4.03;;;2.10;99.90;;;;;;5160435;27;20831;-71
2023/04/05 02:17:39;;;;;;;6.90;4.50;;;2.10;99.90;;;;;;5161081;27;20470;-71
2023/04/05 02:20:11;;;;;;;4.40;4.00;;;2.00;99.90;;;;;;5162397;27;20478;-71
2023/04/05 02:22:38;;;;;;;5.57;4.77;;;2.00;99.90;;;;;;5163074;27;20468;-71
2023/04/05 02:25:07;;;;;;;7.63;4.17;;;2.00;99.90;;;;;;5161306;27;20519;-70
2023/04/05 02:27:34;;;;;;;8.43;4.07;;;2.00;99.90;;;;;;5160476;27;20515;-70
2023/04/05 02:30:01;;;;;;;5.70;3.53;;;2.00;99.90;;;;;;5161184;27;20760;-70
2023/04/05 02:32:28;;;;;;;6.00;3.80;;;1.90;99.90;;;;;;5160955;27;20535;-70
2023/04/05 02:34:55;;;;;;;5.13;3.80;;;1.90;99.90;;;;;;5162108;27;20481;-70
2023/04/05 02:37:24;;;;;;;6.63;3.77;;;1.90;99.90;;;;;;5160336;27;20574;-71
2023/04/05 02:39:52;;;;;;;4.67;3.97;;;2.00;99.90;;;;;;5160863;27;20841;-70
2023/04/05 02:42:19;;;;;;;6.23;4.17;;;1.90;99.90;;;;;;5159503;27;20520;-70
2023/04/05 02:44:46;;;;;;;5.60;3.40;;;2.00;99.90;;;;;;5160643;27;20450;-71
2023/04/05 02:47:16;;;;;;;4.73;3.87;;;2.00;99.90;;;;;;5160750;27;20537;-70
2023/04/05 02:49:43;;;;;;;7.97;3.67;;;2.10;99.90;;;;;;5161460;27;20478;-71
2023/04/05 02:52:09;;;;;;;5.10;3.47;;;2.10;99.90;;;;;;5160793;27;20522;-71
2023/04/05 02:54:38;;;;;;;6.03;4.27;;;2.20;99.90;;;;;;5160343;27;20490;-71
2023/04/05 02:57:05;;;;;;;7.80;3.77;;;2.20;99.90;;;;;;5160873;27;20474;-70
2023/04/05 02:59:31;;;;;;;7.63;4.20;;;2.20;99.90;;;;;;5160283;27;20538;-67
2023/04/05 03:01:58;;;;;;;6.03;3.60;;;2.20;99.90;;;;;;5157054;27;20843;-68
2023/04/05 03:04:26;;;;;;;5.03;3.27;;;2.20;99.90;;;;;;5156742;27;20537;-68
2023/04/05 03:06:53;;;;;;;5.90;3.40;;;2.20;99.90;;;;;;5156887;27;20454;-67
2023/04/05 03:09:21;;;;;;;5.90;3.30;;;2.20;99.90;;;;;;5156616;27;20454;-68
2023/04/05 03:11:49;;;;;;;6.23;3.73;;;2.20;99.90;;;;;;5158315;27;20610;-69
2023/04/05 03:14:16;;;;;;;4.77;3.90;;;2.20;99.90;;;;;;5158285;27;20460;-69
2023/04/05 03:16:43;;;;;;;5.30;4.20;;;2.30;99.90;;;;;;5158646;27;20879;-68
2023/04/05 03:19:10;;;;;;;5.70;3.80;;;2.30;99.90;;;;;;5157898;27;20460;-70
2023/04/05 03:21:38;;;;;;;5.10;3.70;;;2.30;99.90;;;;;;5159007;27;20465;-71
2023/04/05 03:24:06;;;;;;;9.00;4.87;;;2.30;99.90;;;;;;5158312;27;20447;-70
2023/04/05 03:26:33;;;;;;;6.80;4.10;;;2.50;99.90;;;;;;5158413;27;20545;-71
2023/04/05 03:29:01;;;;;;;6.93;3.70;;;2.40;99.90;;;;;;5158994;27;20541;-72
2023/04/05 03:31:29;;;;;;;6.50;3.80;;;2.40;99.90;;;;;;5158847;27;20463;-72
2023/04/05 03:33:56;;;;;;;4.77;3.57;;;2.50;99.90;;;;;;5158992;27;20458;-72
2023/04/05 03:36:23;;;;;;;6.70;3.80;;;2.50;99.90;;;;;;5160496;27;20589;-71
2023/04/05 03:38:50;;;;;;;8.00;4.70;;;2.50;99.90;;;;;;5161253;27;20529;-71
2023/04/05 03:41:17;;;;;;;5.50;4.23;;;2.40;99.90;;;;;;5160738;27;20530;-70
2023/04/05 03:43:44;;;;;;;8.43;4.30;;;2.30;99.90;;;;;;5160042;27;20467;-72
2023/04/05 03:46:12;;;;;;;10.37;4.37;;;2.40;99.90;;;;;;5159815;27;20465;-70
2023/04/05 03:48:39;;;;;;;7.70;4.77;;;2.40;99.90;;;;;;5160479;27;20451;-71
2023/04/05 03:51:06;;;;;;;12.40;5.60;;;2.30;99.90;;;;;;5158388;27;20454;-72
2023/04/05 03:53:33;;;;;;;10.33;5.40;;;2.30;99.90;;;;;;5158732;27;20455;-70
2023/04/05 03:56:00;;;;;;;12.77;4.43;;;2.30;99.90;;;;;;5159005;27;20454;-70
2023/04/05 03:58:27;;;;;;;8.73;5.77;;;2.30;99.90;;;;;;5158894;27;20493;-71
2023/04/05 04:00:55;;;;;;;8.40;5.10;;;2.30;99.90;;;;;;5159379;27;20451;-70
2023/04/05 04:03:24;;;;;;;8.07;5.40;;;2.30;99.90;;;;;;5158994;27;20458;-71
2023/04/05 04:05:51;;;;;;;8.10;4.53;;;2.40;99.90;;;;;;5159017;27;20450;-71
2023/04/05 04:08:18;;;;;;;5.67;4.27;;;2.40;99.90;;;;;;5158431;27;20794;-72
2023/04/05 04:10:45;;;;;;;7.70;4.60;;;2.40;99.90;;;;;;5159026;27;20539;-71
2023/04/05 04:13:12;;;;;;;9.37;5.37;;;2.30;99.90;;;;;;5160782;27;20510;-71
2023/04/05 04:15:39;;;;;;;13.73;6.60;;;2.20;99.90;;;;;;5160045;27;20866;-71
2023/04/05 04:18:06;;;;;;;9.87;5.00;;;2.20;99.90;;;;;;5158642;27;20494;-70
2023/04/05 04:20:34;;;;;;;12.27;5.93;;;2.30;99.90;;;;;;5158407;27;20455;-71
2023/04/05 04:23:01;;;;;;;16.03;5.60;;;2.40;99.90;;;;;;5158277;27;20454;-70
2023/04/05 04:25:29;;;;;;;11.03;5.93;;;2.40;99.90;;;;;;5158739;27;20857;-71
2023/04/05 04:27:57;;;;;;;6.60;4.40;;;2.40;99.90;;;;;;5158142;27;20813;-72
2023/04/05 04:30:24;;;;;;;6.60;4.70;;;2.50;99.90;;;;;;5158367;27;20454;-70
2023/04/05 04:32:51;;;;;;;12.60;5.00;;;2.50;99.90;;;;;;5158732;27;20463;-71
2023/04/05 04:35:19;;;;;;;6.60;4.87;;;2.40;99.90;;;;;;5158244;27;20474;-71
2023/04/05 04:37:51;;;;;;;8.93;5.63;;;2.40;99.90;;;;;;5158489;27;20825;-70
2023/04/05 04:40:20;;;;;;;9.70;5.20;;;2.50;99.90;;;;;;5158012;27;20773;-71
2023/04/05 04:42:47;;;;;;;8.70;4.30;;;2.60;99.90;;;;;;5158574;27;20534;-71
2023/04/05 04:45:22;;;;;;;8.00;4.93;;;2.60;99.90;;;;;;5159029;27;20554;-71
2023/04/05 04:47:52;;;;;;;6.57;4.60;;;2.60;99.90;;;;;;5157750;27;20434;-70
2023/04/05 04:50:20;;;;;;;6.93;4.40;;;2.60;99.90;;;;;;5158213;27;20783;-73
2023/04/05 04:52:48;;;;;;;40.40;23.17;;;2.70;99.90;;;;;;5158510;27;20541;-70
2023/04/05 04:55:15;;;;;;;5.60;4.67;;;2.70;99.90;;;;;;5158781;27;20450;-70
2023/04/05 04:57:43;;;;;;;7.37;4.57;;;2.70;99.90;;;;;;5163576;27;20998;-71
2023/04/05 05:00:13;;;;;;;7.87;4.00;;;2.70;99.90;;;;;;5163820;27;20529;-71
2023/04/05 05:02:41;;;;;;;6.60;3.90;;;2.70;99.90;;;;;;5164212;27;20434;-71
2023/04/05 05:05:09;;;;;;;6.70;3.70;;;2.60;99.90;;;;;;5164245;27;20843;-71
2023/04/05 05:07:36;;;;;;;7.90;4.40;;;2.60;99.90;;;;;;5164206;27;20529;-72
2023/04/05 05:10:06;;;;;;;4.90;4.00;;;2.60;99.90;;;;;;5164812;27;20537;-71
2023/04/05 05:12:33;;;;;;;11.33;5.00;;;2.60;99.90;;;;;;5163767;27;20458;-71
2023/04/05 05:15:00;;;;;;;6.47;4.83;;;2.70;99.90;;;;;;5164038;27;20478;-71
2023/04/05 05:17:27;;;;;;;8.03;4.80;;;2.70;99.90;;;;;;5164208;27;20563;-71
2023/04/05 05:19:54;;;;;;;6.53;4.03;;;2.70;99.90;;;;;;5164439;27;20950;-71
2023/04/05 05:22:21;;;;;;;7.97;4.80;;;2.70;99.90;;;;;;5163260;27;20450;-71
2023/04/05 05:24:48;;;;;;;6.83;4.67;;;2.80;99.90;;;;;;5163104;27;20549;-71
2023/04/05 05:27:16;;;;;;;7.80;4.27;;;2.80;99.90;;;;;;5162410;27;20450;-71
2023/04/05 05:29:43;;;;;;;8.83;4.00;;;2.80;99.90;;;;;;5162933;27;20489;-72
2023/04/05 05:32:13;;;;;;;7.60;4.33;;;2.80;99.90;;;;;;5162464;27;20446;-71
2023/04/05 05:34:40;;;;;;;7.00;3.90;;;2.90;99.90;;;;;;5162682;27;20906;-71
2023/04/05 05:37:08;;;;;;;7.43;4.03;;;2.90;99.90;;;;;;5162655;27;20454;-72
2023/04/05 05:39:35;;;;;;;6.47;4.10;;;2.90;99.90;;;;;;5161792;27;20906;-71
2023/04/05 05:42:02;;;;;;;5.20;3.60;;;2.90;99.90;;;;;;5162070;27;20840;-71
2023/04/05 05:44:30;;;;;;;5.70;4.03;;;3.00;99.90;;;;;;5162306;27;20545;-71
2023/04/05 05:46:57;;;;;;;4.37;3.20;;;2.90;99.90;;;;;;5162210;27;20451;-73
2023/04/05 05:49:24;;;;;;;6.90;4.00;;;2.90;99.90;;;;;;5163253;27;20462;-72
2023/04/05 05:51:52;;;;;;;5.23;3.63;;;2.90;99.90;;;;;;5162781;27;20844;-71
2023/04/05 05:54:19;;;;;;;7.40;3.80;;;2.80;99.90;;;;;;5161798;27;20780;-71
2023/04/05 05:56:46;;;;;;;6.13;4.00;;;2.80;99.90;;;;;;5160823;27;20553;-71
2023/04/05 05:59:13;;;;;;;6.70;3.80;;;2.80;99.90;;;;;;5160685;27;20486;-71
2023/04/05 06:01:45;;;;;;;4.83;3.53;;;3.00;99.90;;;;;;5160617;27;20518;-71
2023/04/05 06:04:12;;;;;;;3.63;2.97;;;3.00;99.90;;;;;;5160600;27;20774;-71
2023/04/05 06:06:39;;;;;;;5.53;4.40;;;3.00;99.90;;;;;;5160022;27;20460;-72
2023/04/05 06:09:06;;;;;;;5.67;3.53;;;3.00;99.90;;;;;;5160352;27;20461;-71
2023/04/05 06:11:33;;;;;;;5.60;3.37;;;3.10;99.90;;;;;;5160303;27;20580;-71
2023/04/05 06:14:00;;;;;;;5.80;4.10;;;3.20;99.90;;;;;;5159366;27;20542;-71
2023/04/05 06:16:28;;;;;;;13.07;4.10;;;3.20;99.90;;;;;;5160520;27;20464;-71
2023/04/05 06:18:56;;;;;;;7.33;3.53;;;3.10;99.90;;;;;;5160966;27;20810;-72
2023/04/05 06:21:23;;;;;;;7.13;5.97;;;3.20;99.90;;;;;;5161014;27;20497;-72
2023/04/05 06:23:50;;;;;;;4.53;4.07;;;3.20;99.90;;;;;;5161084;27;20450;-71
2023/04/05 06:26:19;;;;;;;4.13;2.97;;;3.20;99.90;;;;;;5160925;27;20501;-71
2023/04/05 06:28:47;;;;;;;4.93;3.67;;;3.20;99.90;;;;;;5161234;27;20455;-73
2023/04/05 06:31:16;;;;;;;6.17;4.10;;;3.20;99.90;;;;;;5160539;27;20918;-71
2023/04/05 06:33:43;;;;;;;5.63;3.70;;;3.30;99.90;;;;;;5160257;27;20668;-72
2023/04/05 06:36:11;;;;;;;10.33;5.47;;;3.30;99.90;;;;;;5160097;27;20967;-69
2023/04/05 06:38:38;;;;;;;6.33;4.60;;;3.30;99.90;;;;;;5160643;27;20475;-72
2023/04/05 06:41:05;;;;;;;6.63;3.83;;;3.40;99.90;;;;;;5161269;27;20759;-73
2023/04/05 06:43:32;;;;;;;7.50;3.30;;;3.40;99.90;;;;;;5160274;27;20546;-71
2023/04/05 06:46:00;;;;;;;10.27;4.10;;;3.50;99.90;;;;;;5158769;27;20542;-72
2023/04/05 06:48:28;;;;;;;7.10;3.40;;;3.60;99.90;;;;;;5159667;27;20803;-72
2023/04/05 06:50:58;;;;;;;6.80;3.27;;;3.60;99.90;;;;;;5159795;27;20474;-71
2023/04/05 06:53:27;;;;;;;6.00;4.33;;;3.70;99.90;;;;;;5159603;27;20465;-71
2023/04/05 06:55:54;;;;;;;5.70;3.80;;;3.70;99.90;;;;;;5159340;27;20450;-72
2023/04/05 06:58:22;;;;;;;5.90;3.63;;;3.80;99.90;;;;;;5158133;27;20518;-71
2023/04/05 07:00:49;;;;;;;6.20;4.20;;;3.80;99.90;;;;;;5158779;27;20933;-71
2023/04/05 07:03:17;;;;;;;3.93;3.10;;;4.00;99.90;;;;;;5158503;27;20876;-72
2023/04/05 07:05:51;;;;;;;8.33;5.00;;;4.00;99.90;;;;;;5157920;27;20462;-72
2023/04/05 07:08:19;;;;;;;5.97;4.83;;;4.10;99.90;;;;;;5158232;27;20437;-71
2023/04/05 07:10:48;;;;;;;6.97;3.80;;;4.20;99.90;;;;;;5158814;27;20550;-71
2023/04/05 07:13:15;;;;;;;6.33;4.53;;;4.20;99.90;;;;;;5158828;27;20455;-70
2023/04/05 07:15:42;;;;;;;4.93;4.40;;;4.20;99.90;;;;;;5158769;27;20451;-73
2023/04/05 07:18:09;;;;;;;6.30;4.87;;;4.30;99.90;;;;;;5157132;27;20641;-72
2023/04/05 07:20:36;;;;;;;5.53;4.30;;;4.40;99.90;;;;;;5158269;27;20454;-71
2023/04/05 07:23:04;;;;;;;7.43;4.40;;;4.40;99.90;;;;;;5158200;27;20494;-72
2023/04/05 07:25:31;;;;;;;9.60;5.77;;;4.40;99.90;;;;;;5158046;27;20454;-71
2023/04/05 07:28:00;;;;;;;8.40;4.37;;;4.40;99.90;;;;;;5157958;27;20482;-71
2023/04/05 07:30:27;;;;;;;8.17;4.10;;;4.40;99.90;;;;;;5158542;27;20451;-71
2023/04/05 07:32:54;;;;;;;6.27;4.47;;;4.40;99.90;;;;;;5158578;27;20458;-71
2023/04/05 07:35:21;;;;;;;6.63;4.00;;;4.40;99.90;;;;;;5158368;27;20450;-72
2023/04/05 07:37:48;;;;;;;7.97;4.87;;;4.40;99.90;;;;;;5158663;27;20478;-71
2023/04/05 07:40:15;;;;;;;9.47;4.73;;;4.40;99.90;;;;;;5158763;27;20454;-72
2023/04/05 07:42:42;;;;;;;5.50;3.97;;;4.40;99.90;;;;;;5158971;27;20450;-70
2023/04/05 07:45:11;;;;;;;7.57;4.70;;;4.50;99.90;;;;;;5158628;27;20514;-71
2023/04/05 07:47:38;;;;;;;7.80;4.80;;;4.30;99.90;;;;;;5158806;27;20542;-72
2023/04/05 07:50:08;;;;;;;7.57;4.90;;;4.40;99.90;;;;;;5158536;27;20461;-71
2023/04/05 07:52:35;;;;;;;8.73;4.90;;;4.30;99.90;;;;;;5158800;27;20450;-71
2023/04/05 07:55:02;;;;;;;8.80;5.07;;;4.30;99.90;;;;;;5158772;27;20541;-71
2023/04/05 07:57:29;;;;;;;8.10;5.17;;;4.30;99.90;;;;;;5158519;27;20541;-71
2023/04/05 07:59:56;;;;;;;10.90;5.47;;;4.30;99.90;;;;;;5157996;27;20478;-72
2023/04/05 08:02:24;;;;;;;7.37;5.27;;;4.30;99.90;;;;;;5157840;27;20766;-71
2023/04/05 08:04:51;;;;;;;7.27;4.90;;;4.30;99.90;;;;;;5157597;27;20470;-72
2023/04/05 08:07:18;;;;;;;6.10;5.07;;;4.40;99.90;;;;;;5158262;27;20486;-71
2023/04/05 08:09:45;;;;;;;14.33;10.40;;;4.40;99.90;;;;;;5157924;27;20457;-72
2023/04/05 08:12:14;;;;;;;6.70;4.90;;;4.40;99.90;;;;;;5158090;27;20506;-73
2023/04/05 08:14:41;;;;;;;5.70;4.80;;;4.50;99.90;;;;;;5158324;27;20460;-71
2023/04/05 08:17:08;;;;;;;6.60;5.20;;;4.50;99.90;;;;;;5157442;27;20541;-71
2023/04/05 08:19:36;;;;;;;7.67;5.07;;;4.60;99.90;;;;;;5157045;27;20802;-71
2023/04/05 08:22:03;;;;;;;9.90;4.70;;;4.60;99.90;;;;;;5157413;27;20455;-72
2023/04/05 08:24:30;;;;;;;8.20;4.97;;;4.70;99.90;;;;;;5157316;27;20802;-71
2023/04/05 08:26:57;;;;;;;7.37;5.23;;;4.80;99.90;;;;;;5156725;27;20460;-71
2023/04/05 08:29:24;;;;;;;9.53;5.97;;;4.90;99.90;;;;;;5157387;27;20450;-72
2023/04/05 08:31:51;;;;;;;15.87;5.40;;;4.90;99.90;;;;;;5161238;27;20814;-71
2023/04/05 08:34:17;;;;;;;6.50;5.13;;;5.00;99.90;;;;;;5160469;27;20997;-71
2023/04/05 08:36:46;;;;;;;16.30;11.00;;;4.90;99.90;;;;;;5160654;27;20843;-71
2023/04/05 08:39:14;;;;;;;12.97;8.97;;;5.00;99.90;;;;;;5160476;27;20589;-71
2023/04/05 08:41:46;;;;;;;18.30;8.40;;;5.00;99.90;;;;;;5160803;27;20454;-70
2023/04/05 08:44:14;;;;;;;10.53;6.60;;;5.10;99.90;;;;;;5160562;27;20529;-72
2023/04/05 08:46:43;;;;;;;12.20;7.67;;;5.20;99.90;;;;;;5160754;27;20515;-71
2023/04/05 08:49:11;;;;;;;11.03;6.83;;;5.30;99.90;;;;;;5160063;27;20454;-72
2023/04/05 08:51:39;;;;;;;7.40;5.50;;;5.40;99.90;;;;;;5160368;27;20719;-71
2023/04/05 08:54:08;;;;;;;6.60;4.70;;;5.40;99.90;;;;;;5160251;27;20454;-71
2023/04/05 08:56:36;;;;;;;5.33;3.93;;;5.40;99.90;;;;;;5159840;27;20586;-71
2023/04/05 08:59:05;;;;;;;6.53;4.17;;;5.40;99.90;;;;;;5159778;27;21041;-71
2023/04/05 09:01:33;;;;;;;10.83;7.20;;;5.40;99.90;;;;;;5160482;27;20483;-71
2023/04/05 09:04:02;;;;;;;5.80;4.63;;;5.50;99.90;;;;;;5160473;27;20447;-71
2023/04/05 09:06:29;;;;;;;5.97;4.63;;;5.60;99.90;;;;;;5160631;27;20798;-71
2023/04/05 09:08:57;;;;;;;11.80;5.70;;;5.60;99.90;;;;;;5163782;27;20497;-70
2023/04/05 09:11:26;;;;;;;6.43;4.83;;;5.80;99.90;;;;;;5166012;27;20465;-71
2023/04/05 09:13:53;;;;;;;7.60;5.70;;;6.00;99.90;;;;;;5164846;27;20518;-71
2023/04/05 09:16:20;;;;;;;7.20;4.60;;;6.00;99.90;;;;;;5164414;27;20525;-71
2023/04/05 09:18:47;;;;;;;4.70;4.23;;;6.00;99.90;;;;;;5166362;27;20581;-72
2023/04/05 09:21:16;;;;;;;6.47;4.43;;;6.00;99.90;;;;;;5163222;27;20450;-72
2023/04/05 09:23:52;;;;;;;8.23;4.90;;;6.00;99.90;;;;;;5162710;27;20462;-72
2023/04/05 09:26:20;;;;;;;9.60;4.87;;;6.00;99.90;;;;;;5161908;27;20438;-72
2023/04/05 09:28:48;;;;;;;6.90;4.93;;;6.00;99.90;;;;;;5161726;27;20929;-72
2023/04/05 09:31:32;;;;;;;6.63;4.50;;;6.10;99.90;;;;;;5161867;27;20542;-72
2023/04/05 09:34:00;;;;;;;5.17;4.63;;;6.10;99.90;;;;;;5161315;27;20465;-72
2023/04/05 09:36:28;;;;;;;8.17;4.23;;;6.20;99.90;;;;;;5161840;27;20477;-72
2023/04/05 09:39:05;;;;;;;12.83;5.47;;;6.40;99.90;;;;;;5161162;27;20474;-72
2023/04/05 09:41:31;;;;;;;4.90;3.97;;;6.50;99.90;;;;;;5160752;27;20449;-71
2023/04/05 09:44:00;;;;;;;6.83;4.83;;;6.60;99.90;;;;;;5162948;27;20556;-72
2023/04/05 09:46:32;;;;;;;6.17;4.07;;;6.70;99.90;;;;;;5162348;27;20546;-72
2023/04/05 09:49:00;;;;;;;6.00;4.10;;;6.80;99.90;;;;;;5162238;27;20542;-70
2023/04/05 09:51:33;;;;;;;6.37;3.93;;;6.80;99.90;;;;;;5162026;27;20480;-71
2023/04/05 09:54:01;;;;;;;5.10;3.70;;;7.00;99.90;;;;;;5162721;27;20435;-72
2023/04/05 09:56:29;;;;;;;4.80;3.30;;;7.10;99.90;;;;;;5162437;27;20795;-73
2023/04/05 09:59:03;;;;;;;5.17;3.80;;;7.20;99.90;;;;;;5162223;27;20486;-72
2023/04/05 10:01:31;;;;;;;8.43;4.23;;;7.40;99.90;;;;;;5162728;27;20446;-71
2023/04/05 10:03:59;;;;;;;7.00;3.70;;;7.50;99.90;;;;;;5161850;27;20461;-71
2023/04/05 10:06:36;;;;;;;5.97;3.50;;;7.60;99.90;;;;;;5161572;27;20466;-73
2023/04/05 10:09:04;;;;;;;4.40;3.33;;;7.60;99.90;;;;;;5160882;27;20435;-72
2023/04/05 10:11:32;;;;;;;6.07;3.60;;;7.70;99.90;;;;;;5161806;27;20898;-72
2023/04/05 10:14:02;;;;;;;4.60;3.60;;;7.90;99.90;;;;;;5162035;27;20461;-72
2023/04/05 10:16:33;;;;;;;5.93;5.23;;;8.10;99.90;;;;;;5162299;27;20461;-71
2023/04/05 10:19:01;;;;;;;10.80;4.30;;;8.10;99.90;;;;;;5162524;27;20455;-72
2023/04/05 10:21:31;;;;;;;8.23;4.20;;;8.10;99.90;;;;;;5161730;27;20482;-73
2023/04/05 10:24:05;;;;;;;5.20;3.73;;;8.20;99.90;;;;;;5164458;27;20454;-72
2023/04/05 10:26:40;;;;;;;7.23;4.13;;;8.20;99.90;;;;;;5162887;27;20518;-72
2023/04/05 10:29:12;;;;;;;4.30;3.27;;;8.10;99.90;;;;;;5161539;27;20426;-72
2023/04/05 10:31:50;;;;;;;5.33;4.50;;;8.00;99.90;;;;;;5162022;27;20435;-72
2023/04/05 10:34:27;;;;;;;10.63;9.17;;;8.00;99.90;;;;;;5164516;27;20516;-72
2023/04/05 10:36:58;;;;;;;8.00;4.40;;;8.10;99.90;;;;;;5164518;27;20531;-73
2023/04/05 10:39:28;;;;;;;6.23;4.30;;;7.90;99.90;;;;;;5163215;27;20516;-72
2023/04/05 10:42:00;;;;;;;5.60;3.67;;;7.90;99.90;;;;;;5164437;27;20545;-72
2023/04/05 10:44:32;;;;;;;3.80;3.30;;;7.90;99.90;;;;;;5165112;27;20435;-73
2023/04/05 10:46:59;;;;;;;4.80;4.40;;;7.90;99.90;;;;;;5164367;27;20439;-72
2023/04/05 10:49:34;;;;;;;5.37;4.20;;;7.90;99.90;;;;;;5163856;27;20503;-72
2023/04/05 10:52:02;;;;;;;3.67;3.30;;;7.80;99.90;;;;;;5164286;27;20470;-73
2023/04/05 10:54:32;;;;;;;7.33;3.63;;;7.90;99.90;;;;;;5164650;27;20510;-72
2023/04/05 10:57:00;;;;;;;3.63;3.27;;;7.90;99.90;;;;;;5164015;27;20455;-73
2023/04/05 10:59:30;;;;;;;5.83;3.43;;;7.90;99.90;;;;;;5163603;27;20577;-72
2023/04/05 11:01:58;;;;;;;4.37;3.30;;;8.20;99.90;;;;;;5164947;27;20454;-72
2023/04/05 11:04:25;;;;;;;6.03;4.30;;;8.50;99.90;;;;;;5164678;27;20474;-72
2023/04/05 11:07:14;;;;;;;4.83;3.43;;;8.70;99.90;;;;;;5163697;27;20478;-72
2023/04/05 11:09:51;;;;;;;5.37;4.30;;;8.70;99.90;;;;;;5164519;27;20467;-71
2023/04/05 11:12:18;;;;;;;4.33;3.13;;;8.90;99.90;;;;;;5165206;27;20825;-72
2023/04/05 11:14:46;;;;;;;5.00;3.37;;;9.10;99.90;;;;;;5165475;27;20514;-72
2023/04/05 11:17:27;;;;;;;4.33;3.50;;;9.20;99.90;;;;;;5165009;27;20474;-72
2023/04/05 11:20:03;;;;;;;3.80;3.40;;;9.10;99.90;;;;;;5160435;27;21014;-72
2023/04/05 11:22:30;;;;;;;6.13;3.93;;;9.20;99.90;;;;;;5160743;27;20553;-72
2023/04/05 11:25:00;;;;;;;2.80;2.60;;;9.40;99.90;;;;;;5159661;27;20443;-72
2023/04/05 11:27:28;;;;;;;6.23;3.57;;;9.30;99.90;;;;;;5160033;27;20762;-72
2023/04/05 11:29:57;;;;;;;4.00;3.57;;;9.30;99.90;;;;;;5160103;27;20454;-71
2023/04/05 11:32:37;;;;;;;5.27;3.80;;;9.00;99.90;;;;;;5159895;27;20972;-72
2023/04/05 11:35:07;;;;;;;6.47;3.70;;;8.80;99.90;;;;;;5159504;27;20538;-71
2023/04/05 11:37:53;;;;;;;4.67;3.70;;;8.70;99.90;;;;;;5159463;27;20501;-72
2023/04/05 11:40:27;;;;;;;5.43;3.50;;;8.70;99.90;;;;;;5159868;27;20557;-72
2023/04/05 11:43:06;;;;;;;7.97;2.70;;;8.60;99.90;;;;;;5159052;27;20934;-72
2023/04/05 11:45:37;;;;;;;9.30;5.17;;;8.40;99.90;;;;;;5159973;27;20813;-72
2023/04/05 11:48:06;;;;;;;4.83;3.73;;;8.40;99.90;;;;;;5160195;27;20518;-72
2023/04/05 11:50:33;;;;;;;4.07;3.43;;;8.40;99.90;;;;;;5159242;27;20930;-73
2023/04/05 11:53:13;;;;;;;9.50;5.57;;;8.30;99.90;;;;;;5158541;27;20458;-72
2023/04/05 11:55:42;;;;;;;5.97;3.60;;;8.30;99.90;;;;;;5159446;27;20534;-73
2023/04/05 11:58:13;;;;;;;7.40;3.67;;;8.60;99.90;;;;;;5158299;27;20857;-72
2023/04/05 12:00:41;;;;;;;3.30;3.00;;;8.50;99.90;;;;;;5157701;27;20569;-73
2023/04/05 12:03:12;;;;;;;4.10;2.87;;;8.60;99.90;;;;;;5158179;27;20450;-72
2023/04/05 12:05:46;;;;;;;3.20;2.90;;;8.50;99.90;;;;;;5157786;27;20493;-72
2023/04/05 12:08:13;;;;;;;7.03;4.20;;;8.30;99.90;;;;;;5157880;27;20564;-72
2023/04/05 12:10:40;;;;;;;4.77;3.40;;;8.20;99.90;;;;;;5158053;27;20482;-72
2023/04/05 12:13:07;;;;;;;5.63;3.70;;;8.20;99.90;;;;;;5158006;27;20486;-72
2023/04/05 12:15:37;;;;;;;5.90;3.50;;;8.10;99.90;;;;;;5159870;27;20458;-73
2023/04/05 12:18:12;;;;;;;8.93;6.40;;;7.90;99.90;;;;;;5159979;27;20445;-72
2023/04/05 12:20:39;;;;;;;5.10;3.30;;;8.00;99.90;;;;;;5160515;27;20572;-72
2023/04/05 12:23:06;;;;;;;4.70;3.10;;;8.00;99.90;;;;;;5160448;27;20485;-72
2023/04/05 12:25:35;;;;;;;5.47;3.30;;;8.00;99.90;;;;;;5160148;27;20914;-71
2023/04/05 12:28:07;;;;;;;4.50;2.93;;;8.10;99.90;;;;;;5159353;27;20450;-73
2023/04/05 12:30:37;;;;;;;4.90;3.47;;;8.20;99.90;;;;;;5158205;27;20887;-71
2023/04/05 12:33:09;;;;;;;4.67;3.23;;;8.20;99.90;;;;;;5159437;27;20455;-71
2023/04/05 12:35:36;;;;;;;5.63;3.47;;;8.30;99.90;;;;;;5159652;27;20465;-72
2023/04/05 12:38:04;;;;;;;3.27;2.97;;;8.40;99.90;;;;;;5160466;27;20780;-71
2023/04/05 12:40:32;;;;;;;4.23;3.13;;;8.60;99.90;;;;;;5160633;27;20475;-72
2023/04/05 12:43:03;;;;;;;6.10;3.03;;;8.80;99.90;;;;;;5159679;27;20464;-73
2023/04/05 12:45:38;;;;;;;7.20;3.47;;;8.80;99.90;;;;;;5159628;27;20455;-73
2023/04/05 12:48:10;;;;;;;7.17;5.00;;;8.90;99.90;;;;;;5159563;27;20438;-71
2023/04/05 12:50:42;;;;;;;7.70;4.90;;;9.10;99.90;;;;;;5158875;27;20474;-72
2023/04/05 12:53:16;;;;;;;9.20;3.20;;;9.30;99.90;;;;;;5159319;27;20494;-71
2023/04/05 12:55:48;;;;;;;6.63;3.03;;;9.60;99.90;;;;;;5159200;27;20435;-71
2023/04/05 12:58:16;;;;;;;6.63;5.40;;;9.80;97.60;;;;;;5158960;27;20475;-72
2023/04/05 13:00:44;;;;;;;2.93;2.67;;;10.40;98.00;;;;;;5158101;27;20534;-72
2023/04/05 13:03:19;;;;;;;6.23;3.17;;;10.60;93.70;;;;;;5160256;27;20461;-72
2023/04/05 13:05:46;;;;;;;6.00;3.30;;;10.80;91.90;;;;;;5162944;27;20445;-71